createdAt,value
2022-12-29T00:01:01.276Z,97.46
2022-12-29T00:03:30.311Z,97.37
2022-12-29T00:05:58.546Z,97.22
2022-12-29T00:08:40.391Z,97.20
2022-12-29T00:11:15.994Z,97.10
2022-12-29T00:14:01.195Z,97.09
2022-12-29T00:16:28.906Z,97.14
2022-12-29T00:18:58.308Z,97.36
2022-12-29T00:21:44.648Z,97.24
2022-12-29T00:24:26.980Z,97.66
2022-12-29T00:27:17.697Z,97.20
2022-12-29T00:30:03.159Z,97.38
2022-12-29T00:32:50.798Z,97.09
2022-12-29T00:35:32.924Z,97.24
2022-12-29T00:38:23.176Z,96.76
2022-12-29T00:41:10.509Z,97.01
2022-12-29T00:43:58.197Z,96.93
2022-12-29T00:46:27.035Z,97.23
2022-12-29T00:49:12.208Z,97.36
2022-12-29T00:51:38.773Z,97.84
2022-12-29T00:54:05.383Z,97.76
2022-12-29T00:56:31.951Z,97.65
2022-12-29T00:59:06.985Z,97.40
2022-12-29T01:01:34.580Z,97.51
2022-12-29T01:04:04.082Z,97.76
2022-12-29T01:06:31.267Z,97.70
2022-12-29T01:09:16.470Z,97.77
2022-12-29T01:11:43.051Z,97.98
2022-12-29T01:14:09.722Z,98.14
2022-12-29T01:16:37.483Z,98.15
2022-12-29T01:19:06.933Z,98.21
2022-12-29T01:21:34.313Z,98.21
2022-12-29T01:24:03.546Z,98.09
2022-12-29T01:26:32.439Z,98.01
2022-12-29T01:29:00.293Z,98.09
2022-12-29T01:31:26.883Z,98.45
2022-12-29T01:33:53.530Z,98.43
2022-12-29T01:36:20.364Z,99.01
2022-12-29T01:38:49.267Z,99.11
2022-12-29T01:41:17.334Z,98.63
2022-12-29T01:43:48.813Z,98.45
2022-12-29T01:46:15.655Z,98.49
2022-12-29T01:48:44.061Z,98.52
2022-12-29T01:51:10.916Z,98.46
2022-12-29T01:53:38.165Z,98.24
2022-12-29T01:56:10.130Z,97.91
2022-12-29T01:58:40.936Z,97.98
2022-12-29T02:01:10.344Z,97.88
2022-12-29T02:03:42.088Z,97.41
2022-12-29T02:06:23.942Z,97.48
2022-12-29T02:08:53.484Z,97.31
2022-12-29T02:11:20.952Z,97.24
2022-12-29T02:13:47.633Z,97.10
2022-12-29T02:16:14.193Z,96.74
2022-12-29T02:19:01.541Z,96.54
2022-12-29T02:21:43.372Z,96.27
2022-12-29T02:24:40.923Z,96.01
2022-12-29T02:27:29.429Z,95.94
2022-12-29T02:30:08.830Z,95.81
2022-12-29T02:32:59.653Z,95.59
2022-12-29T02:36:03.445Z,95.39
2022-12-29T02:38:54.506Z,95.25
2022-12-29T02:41:29.834Z,95.13
2022-12-29T02:44:04.953Z,95.07
2022-12-29T02:47:17.481Z,95.15
2022-12-29T02:50:09.987Z,95.04
2022-12-29T02:52:45.938Z,94.64
2022-12-29T02:55:12.828Z,94.63
2022-12-29T02:57:41.518Z,94.53
2022-12-29T03:00:28.460Z,94.53
2022-12-29T03:03:05.208Z,94.42
2022-12-29T03:05:59.338Z,94.46
2022-12-29T03:08:41.640Z,94.38
2022-12-29T03:11:31.635Z,94.25
2022-12-29T03:14:20.878Z,94.26
2022-12-29T03:17:15.548Z,94.46
2022-12-29T03:19:52.517Z,94.42
2022-12-29T03:22:32.375Z,94.09
2022-12-29T03:25:13.876Z,94.31
2022-12-29T03:27:48.474Z,93.91
2022-12-29T03:30:15.890Z,94.19
2022-12-29T03:32:56.625Z,94.03
2022-12-29T03:35:27.078Z,94.10
2022-12-29T03:38:07.431Z,94.19
2022-12-29T03:40:35.505Z,94.10
2022-12-29T03:43:04.150Z,93.89
2022-12-29T03:45:30.648Z,94.37
2022-12-29T03:47:59.596Z,94.40
2022-12-29T03:50:26.132Z,94.10
2022-12-29T03:52:52.683Z,93.85
2022-12-29T03:55:19.284Z,94.02
2022-12-29T03:57:45.948Z,94.04
2022-12-29T04:00:13.201Z,93.95
2022-12-29T04:02:42.695Z,94.01
2022-12-29T04:05:09.605Z,93.63
2022-12-29T04:07:36.233Z,93.60
2022-12-29T04:10:03.164Z,93.34
2022-12-29T04:12:29.727Z,93.65
2022-12-29T04:14:56.315Z,93.44
2022-12-29T04:17:22.881Z,93.10
2022-12-29T04:19:49.611Z,93.24
2022-12-29T04:22:16.255Z,93.39
2022-12-29T04:24:44.931Z,93.29
2022-12-29T04:27:11.536Z,93.26
2022-12-29T04:29:40.412Z,93.28
2022-12-29T04:32:06.945Z,93.19
2022-12-29T04:34:34.116Z,93.23
2022-12-29T04:37:00.676Z,93.05
2022-12-29T04:39:27.275Z,93.18
2022-12-29T04:41:53.845Z,93.04
2022-12-29T04:44:22.647Z,92.76
2022-12-29T04:46:49.296Z,92.85
2022-12-29T04:49:15.954Z,92.57
2022-12-29T04:51:42.559Z,92.58
2022-12-29T04:54:11.319Z,92.60
2022-12-29T04:56:37.925Z,92.49
2022-12-29T04:59:04.567Z,92.40
2022-12-29T05:01:33.711Z,92.75
2022-12-29T05:04:00.787Z,92.91
2022-12-29T05:06:27.339Z,93.28
2022-12-29T05:08:56.405Z,93.53
2022-12-29T05:11:23.010Z,93.70
2022-12-29T05:13:49.575Z,93.95
2022-12-29T05:16:16.111Z,93.78
2022-12-29T05:18:42.719Z,93.91
2022-12-29T05:21:09.348Z,93.47
2022-12-29T05:23:35.917Z,92.96
2022-12-29T05:26:02.489Z,92.53
2022-12-29T05:28:31.501Z,92.42
2022-12-29T05:30:58.082Z,92.03
2022-12-29T05:33:27.050Z,91.91
2022-12-29T05:35:55.851Z,92.07
2022-12-29T05:38:22.532Z,91.75
2022-12-29T05:40:49.115Z,91.86
2022-12-29T05:43:15.710Z,91.46
2022-12-29T05:45:42.329Z,91.33
2022-12-29T05:48:11.087Z,91.13
2022-12-29T05:50:37.915Z,91.12
2022-12-29T05:53:04.492Z,90.93
2022-12-29T05:55:31.027Z,90.73
2022-12-29T05:57:57.662Z,90.67
2022-12-29T06:00:24.496Z,90.57
2022-12-29T06:02:51.508Z,90.69
2022-12-29T06:05:18.469Z,90.38
2022-12-29T06:07:47.466Z,90.61
2022-12-29T06:10:16.484Z,90.48
2022-12-29T06:12:43.245Z,90.87
2022-12-29T06:15:12.381Z,90.55
2022-12-29T06:17:39.002Z,90.28
2022-12-29T06:20:08.350Z,89.93
2022-12-29T06:22:35.266Z,89.72
2022-12-29T06:25:05.428Z,89.97
2022-12-29T06:27:34.641Z,89.54
2022-12-29T06:30:01.271Z,89.77
2022-12-29T06:32:28.025Z,90.00
2022-12-29T06:34:56.646Z,89.85
2022-12-29T06:37:23.177Z,89.75
2022-12-29T06:39:52.136Z,89.78
2022-12-29T06:42:20.898Z,89.95
2022-12-29T06:44:47.515Z,89.42
2022-12-29T06:47:16.422Z,89.39
2022-12-29T06:49:43.073Z,88.95
2022-12-29T06:52:12.914Z,88.41
2022-12-29T06:54:42.408Z,88.08
2022-12-29T06:57:13.798Z,88.12
2022-12-29T06:59:45.279Z,87.59
2022-12-29T07:02:12.692Z,87.83
2022-12-29T07:04:39.365Z,87.81
2022-12-29T07:07:06.025Z,87.89
2022-12-29T07:09:32.772Z,87.74
2022-12-29T07:11:59.566Z,87.78
2022-12-29T07:14:26.127Z,87.47
2022-12-29T07:16:54.920Z,87.66
2022-12-29T07:19:21.560Z,87.37
2022-12-29T07:21:48.477Z,87.17
2022-12-29T07:24:15.070Z,87.08
2022-12-29T07:26:42.810Z,87.15
2022-12-29T07:29:09.374Z,86.51
2022-12-29T07:31:35.951Z,86.54
2022-12-29T07:34:02.598Z,86.76
2022-12-29T07:36:34.645Z,86.35
2022-12-29T07:39:02.001Z,86.70
2022-12-29T07:41:28.576Z,86.67
2022-12-29T07:43:55.350Z,87.23
2022-12-29T07:46:56.635Z,86.95
2022-12-29T07:49:10.855Z,86.42
2022-12-29T07:51:39.954Z,86.10
2022-12-29T07:54:06.496Z,85.72
2022-12-29T07:56:33.078Z,85.39
2022-12-29T07:58:59.621Z,85.47
2022-12-29T08:01:26.291Z,85.04
2022-12-29T08:03:57.252Z,85.17
2022-12-29T08:06:24.421Z,85.56
2022-12-29T08:08:53.427Z,85.33
2022-12-29T08:11:20.375Z,85.20
2022-12-29T08:13:47.020Z,85.35
2022-12-29T08:16:15.878Z,85.42
2022-12-29T08:18:42.641Z,85.96
2022-12-29T08:21:09.397Z,85.25
2022-12-29T08:23:35.959Z,85.59
2022-12-29T08:26:08.385Z,85.44
2022-12-29T08:28:34.988Z,85.12
2022-12-29T08:31:02.992Z,85.18
2022-12-29T08:33:30.350Z,84.79
2022-12-29T08:36:06.489Z,84.84
2022-12-29T08:38:33.591Z,84.79
2022-12-29T08:41:02.047Z,84.43
2022-12-29T08:43:29.458Z,83.87
2022-12-29T08:45:57.157Z,84.16
2022-12-29T08:48:32.230Z,83.96
2022-12-29T08:51:01.674Z,83.75
2022-12-29T08:53:28.399Z,83.81
2022-12-29T08:56:05.137Z,83.33
2022-12-29T08:58:33.167Z,83.50
2022-12-29T09:01:00.374Z,83.28
2022-12-29T09:04:03.808Z,83.15
2022-12-29T09:06:15.098Z,82.91
2022-12-29T09:08:44.804Z,82.99
2022-12-29T09:11:23.257Z,82.67
2022-12-29T09:13:50.184Z,82.49
2022-12-29T09:16:17.591Z,82.27
2022-12-29T09:18:46.842Z,82.15
2022-12-29T09:21:14.303Z,81.98
2022-12-29T09:23:41.579Z,81.80
2022-12-29T09:26:09.408Z,81.96
2022-12-29T09:28:36.321Z,81.99
2022-12-29T09:31:05.350Z,82.29
2022-12-29T09:33:34.392Z,82.00
2022-12-29T09:36:01.137Z,82.59
2022-12-29T09:38:29.179Z,82.48
2022-12-29T09:41:02.122Z,82.34
2022-12-29T09:43:47.201Z,82.96
2022-12-29T09:46:24.781Z,83.55
2022-12-29T09:49:08.922Z,83.61
2022-12-29T09:51:42.316Z,83.45
2022-12-29T09:54:55.164Z,83.59
2022-12-29T09:57:35.970Z,84.04
2022-12-29T10:00:13.222Z,84.59
2022-12-29T10:02:47.557Z,84.94
2022-12-29T10:05:25.563Z,85.49
2022-12-29T10:07:55.044Z,85.39
2022-12-29T10:10:31.130Z,85.67
2022-12-29T10:13:14.363Z,85.95
2022-12-29T10:16:21.116Z,86.00
2022-12-29T10:19:18.745Z,85.89
2022-12-29T10:21:54.315Z,86.02
2022-12-29T10:24:22.980Z,85.99
2022-12-29T10:26:52.776Z,86.28
2022-12-29T10:29:27.678Z,86.50
2022-12-29T10:32:27.840Z,86.60
2022-12-29T10:34:59.884Z,86.33
2022-12-29T10:38:02.339Z,86.21
2022-12-29T10:41:16.240Z,85.80
2022-12-29T10:43:47.775Z,86.12
2022-12-29T10:46:19.321Z,86.55
2022-12-29T10:48:47.667Z,86.87
2022-12-29T10:51:37.962Z,86.93
2022-12-29T10:54:11.827Z,86.98
2022-12-29T10:56:45.438Z,86.62
2022-12-29T10:59:17.452Z,86.54
2022-12-29T11:02:10.054Z,86.29
2022-12-29T11:04:49.182Z,86.17
2022-12-29T11:07:20.987Z,86.37
2022-12-29T11:09:55.104Z,86.36
2022-12-29T11:12:32.035Z,86.30
2022-12-29T11:15:08.554Z,86.23
2022-12-29T11:17:55.074Z,86.65
2022-12-29T11:20:39.544Z,86.49
2022-12-29T11:23:34.600Z,86.86
2022-12-29T11:26:11.912Z,86.89
2022-12-29T11:28:43.462Z,86.70
2022-12-29T11:31:11.025Z,86.87
2022-12-29T11:33:39.504Z,86.90
2022-12-29T11:36:14.775Z,86.82
2022-12-29T11:38:44.030Z,86.70
2022-12-29T11:41:20.864Z,86.58
2022-12-29T11:43:48.593Z,86.21
2022-12-29T11:46:22.673Z,86.21
2022-12-29T11:48:53.406Z,86.21
2022-12-29T11:51:44.510Z,85.45
2022-12-29T11:54:20.224Z,84.99
2022-12-29T11:56:47.367Z,85.18
2022-12-29T11:59:39.174Z,84.98
2022-12-29T12:02:21.232Z,85.24
2022-12-29T12:04:52.087Z,85.53
2022-12-29T12:07:30.694Z,85.66
2022-12-29T12:10:07.912Z,85.70
2022-12-29T12:13:15.290Z,86.01
2022-12-29T12:15:51.251Z,85.44
2022-12-29T12:18:39.180Z,85.10
2022-12-29T12:21:14.018Z,84.98
2022-12-29T12:24:04.982Z,84.82
2022-12-29T12:26:47.444Z,85.35
2022-12-29T12:29:27.472Z,85.15
2022-12-29T12:32:19.805Z,84.84
2022-12-29T12:34:47.836Z,84.76
2022-12-29T12:37:29.553Z,84.32
2022-12-29T12:39:56.107Z,84.30
2022-12-29T12:42:28.600Z,84.47
2022-12-29T12:45:25.954Z,84.44
2022-12-29T12:48:23.882Z,84.29
2022-12-29T12:51:36.142Z,83.85
2022-12-29T12:54:31.661Z,84.03
2022-12-29T12:57:12.781Z,84.15
2022-12-29T12:59:48.279Z,83.95
2022-12-29T13:02:57.007Z,83.80
2022-12-29T13:05:32.428Z,83.63
2022-12-29T13:08:17.573Z,83.72
2022-12-29T13:10:56.233Z,83.67
2022-12-29T13:13:56.660Z,83.66
2022-12-29T13:16:55.255Z,83.81
2022-12-29T13:19:27.529Z,83.20
2022-12-29T13:22:09.055Z,83.71
2022-12-29T13:24:58.807Z,83.98
2022-12-29T13:27:25.364Z,84.22
2022-12-29T13:30:03.910Z,84.58
2022-12-29T13:32:42.816Z,84.67
2022-12-29T13:35:18.384Z,84.61
2022-12-29T13:38:01.984Z,84.77
2022-12-29T13:40:35.564Z,84.62
2022-12-29T13:43:04.836Z,84.69
2022-12-29T13:45:34.279Z,84.38
2022-12-29T13:48:06.893Z,85.02
2022-12-29T13:50:39.572Z,84.92
2022-12-29T13:53:25.578Z,85.37
2022-12-29T13:56:11.183Z,85.35
2022-12-29T13:58:43.070Z,85.52
2022-12-29T14:01:16.205Z,85.59
2022-12-29T14:03:54.024Z,85.71
2022-12-29T14:06:23.886Z,85.78
2022-12-29T14:08:53.238Z,86.21
2022-12-29T14:11:31.041Z,86.39
2022-12-29T14:14:00.677Z,86.53
2022-12-29T14:16:34.096Z,86.55
2022-12-29T14:19:25.571Z,86.48
2022-12-29T14:22:13.656Z,86.83
2022-12-29T14:24:46.694Z,86.58
2022-12-29T14:27:13.207Z,86.96
2022-12-29T14:29:39.637Z,87.20
2022-12-29T14:32:21.560Z,87.16
2022-12-29T14:34:52.461Z,86.93
2022-12-29T14:37:31.128Z,87.24
2022-12-29T14:40:15.852Z,87.59
2022-12-29T14:42:43.376Z,87.04
2022-12-29T14:45:11.194Z,87.28
2022-12-29T14:47:39.887Z,87.42
2022-12-29T14:50:14.552Z,87.39
2022-12-29T14:52:54.148Z,87.44
2022-12-29T14:55:43.426Z,87.34
2022-12-29T14:58:21.859Z,87.33
2022-12-29T15:00:49.595Z,87.77
2022-12-29T15:03:24.759Z,87.71
2022-12-29T15:06:10.076Z,87.88
2022-12-29T15:08:41.525Z,87.59
2022-12-29T15:11:21.433Z,87.97
2022-12-29T15:13:49.777Z,87.82
2022-12-29T15:16:32.395Z,88.51
2022-12-29T15:18:59.999Z,88.46
2022-12-29T15:21:31.902Z,88.75
2022-12-29T15:23:58.936Z,88.84
2022-12-29T15:26:39.298Z,88.94
2022-12-29T15:29:06.246Z,89.02
2022-12-29T15:31:32.806Z,89.23
2022-12-29T15:34:13.287Z,89.65
2022-12-29T15:36:41.522Z,89.68
2022-12-29T15:39:34.766Z,89.85
2022-12-29T15:42:11.524Z,89.58
2022-12-29T15:44:44.504Z,90.02
2022-12-29T15:47:19.261Z,89.86
2022-12-29T15:49:49.813Z,89.53
2022-12-29T15:52:21.945Z,89.29
2022-12-29T15:54:54.479Z,88.97
2022-12-29T15:57:27.361Z,89.03
2022-12-29T15:59:57.733Z,88.88
2022-12-29T16:02:27.711Z,88.69
2022-12-29T16:05:17.323Z,88.85
2022-12-29T16:07:56.223Z,88.56
2022-12-29T16:10:37.286Z,88.55
2022-12-29T16:13:23.691Z,88.67
2022-12-29T16:15:53.333Z,88.68
2022-12-29T16:18:35.272Z,88.72
2022-12-29T16:21:04.445Z,89.16
2022-12-29T16:23:33.319Z,88.90
2022-12-29T16:26:00.697Z,88.83
2022-12-29T16:28:44.220Z,88.71
2022-12-29T16:31:35.084Z,88.79
2022-12-29T16:34:24.444Z,88.29
2022-12-29T16:36:59.518Z,88.59
2022-12-29T16:39:32.023Z,88.03
2022-12-29T16:41:59.046Z,88.25
2022-12-29T16:44:28.320Z,88.04
2022-12-29T16:47:06.134Z,87.71
2022-12-29T16:49:37.639Z,88.04
2022-12-29T16:52:35.234Z,88.13
2022-12-29T16:55:02.717Z,87.73
2022-12-29T16:57:37.546Z,87.94
2022-12-29T17:00:08.907Z,87.87
2022-12-29T17:02:45.659Z,87.31
2022-12-29T17:05:17.091Z,87.54
2022-12-29T17:07:44.140Z,87.51
2022-12-29T17:10:11.471Z,88.01
2022-12-29T17:12:38.140Z,87.29
2022-12-29T17:15:09.375Z,87.60
2022-12-29T17:17:42.295Z,87.76
2022-12-29T17:20:16.656Z,87.61
2022-12-29T17:22:43.531Z,87.70
2022-12-29T17:25:18.706Z,87.81
2022-12-29T17:27:58.977Z,87.59
2022-12-29T17:30:33.156Z,87.33
2022-12-29T17:33:08.832Z,87.34
2022-12-29T17:35:35.676Z,87.70
2022-12-29T17:38:02.296Z,87.63
2022-12-29T17:40:32.194Z,88.08
2022-12-29T17:43:00.359Z,87.53
2022-12-29T17:45:32.175Z,87.83
2022-12-29T17:48:01.958Z,87.96
2022-12-29T17:50:32.866Z,87.68
2022-12-29T17:53:08.758Z,88.06
2022-12-29T17:55:38.429Z,87.56
2022-12-29T17:58:32.762Z,87.72
2022-12-29T18:01:03.457Z,87.94
2022-12-29T18:03:32.399Z,87.64
2022-12-29T18:06:01.854Z,88.08
2022-12-29T18:08:31.213Z,87.94
2022-12-29T18:10:57.969Z,87.84
2022-12-29T18:13:33.715Z,87.70
2022-12-29T18:16:10.871Z,87.65
2022-12-29T18:18:39.533Z,87.58
2022-12-29T18:21:14.246Z,87.51
2022-12-29T18:23:40.770Z,87.83
2022-12-29T18:26:25.467Z,87.90
2022-12-29T18:28:53.909Z,87.70
2022-12-29T18:31:32.179Z,87.95
2022-12-29T18:34:01.372Z,88.24
2022-12-29T18:36:30.447Z,87.71
2022-12-29T18:38:57.033Z,87.64
2022-12-29T18:41:30.270Z,87.38
2022-12-29T18:43:57.768Z,87.46
2022-12-29T18:46:26.849Z,87.60
2022-12-29T18:48:53.905Z,87.79
2022-12-29T18:51:24.878Z,87.69
2022-12-29T18:53:55.370Z,87.33
2022-12-29T18:56:24.298Z,87.59
2022-12-29T18:58:51.648Z,87.33
2022-12-29T19:01:27.803Z,87.56
2022-12-29T19:03:54.792Z,87.39
2022-12-29T19:06:23.950Z,87.35
2022-12-29T19:08:50.557Z,87.48
2022-12-29T19:11:19.573Z,87.59
2022-12-29T19:13:46.224Z,87.36
2022-12-29T19:16:19.515Z,87.85
2022-12-29T19:18:53.330Z,87.41
2022-12-29T19:21:27.717Z,87.37
2022-12-29T19:23:54.267Z,87.21
2022-12-29T19:26:34.422Z,87.41
2022-12-29T19:29:01.728Z,87.33
2022-12-29T19:31:28.654Z,87.41
2022-12-29T19:33:55.275Z,87.29
2022-12-29T19:36:22.233Z,87.10
2022-12-29T19:38:51.360Z,87.42
2022-12-29T19:41:18.011Z,87.47
2022-12-29T19:43:47.054Z,87.50
2022-12-29T19:46:18.062Z,87.54
2022-12-29T19:48:49.493Z,87.64
2022-12-29T19:51:17.270Z,88.03
2022-12-29T19:53:45.557Z,87.66
2022-12-29T19:56:14.916Z,87.98
2022-12-29T19:58:47.516Z,87.87
2022-12-29T20:01:24.003Z,88.24
2022-12-29T20:03:50.759Z,88.16
2022-12-29T20:06:17.585Z,88.08
2022-12-29T20:08:44.576Z,88.12
2022-12-29T20:11:16.817Z,88.31
2022-12-29T20:13:46.308Z,87.84
2022-12-29T20:16:16.191Z,88.08
2022-12-29T20:18:43.268Z,88.04
2022-12-29T20:21:15.648Z,87.82
2022-12-29T20:23:43.280Z,88.09
2022-12-29T20:26:16.915Z,88.08
2022-12-29T20:28:43.543Z,87.91
2022-12-29T20:31:38.266Z,88.36
2022-12-29T20:34:07.436Z,88.39
2022-12-29T20:36:36.520Z,88.42
2022-12-29T20:39:06.638Z,88.30
2022-12-29T20:41:33.717Z,88.50
2022-12-29T20:44:00.862Z,88.45
2022-12-29T20:46:35.036Z,88.80
2022-12-29T20:49:08.640Z,88.44
2022-12-29T20:52:04.560Z,88.61
2022-12-29T20:54:31.706Z,88.56
2022-12-29T20:57:00.782Z,88.53
2022-12-29T20:59:28.344Z,88.79
2022-12-29T21:01:56.248Z,88.47
2022-12-29T21:04:23.114Z,87.94
2022-12-29T21:06:49.665Z,88.30
2022-12-29T21:09:16.281Z,88.25
2022-12-29T21:11:42.872Z,88.55
2022-12-29T21:14:09.657Z,88.47
2022-12-29T21:16:38.578Z,88.50
2022-12-29T21:19:05.616Z,88.34
2022-12-29T21:21:32.258Z,88.51
2022-12-29T21:24:05.452Z,88.61
2022-12-29T21:26:33.681Z,88.64
2022-12-29T21:29:01.249Z,88.69
2022-12-29T21:31:36.448Z,88.70
2022-12-29T21:34:06.621Z,88.62
2022-12-29T21:36:33.548Z,88.77
2022-12-29T21:39:00.635Z,88.53
2022-12-29T21:41:27.211Z,88.50
2022-12-29T21:44:12.347Z,88.67
2022-12-29T21:46:40.939Z,89.03
2022-12-29T21:49:08.276Z,88.54
2022-12-29T21:51:54.211Z,88.52
2022-12-29T21:54:47.601Z,88.70
2022-12-29T21:57:39.991Z,88.91
2022-12-29T22:00:27.882Z,88.79
2022-12-29T22:03:22.007Z,88.56
2022-12-29T22:06:08.578Z,88.78
2022-12-29T22:08:57.224Z,88.70
2022-12-29T22:11:42.346Z,88.61
2022-12-29T22:14:11.878Z,88.93
2022-12-29T22:16:38.564Z,88.76
2022-12-29T22:19:08.727Z,88.75
2022-12-29T22:21:35.317Z,88.66
2022-12-29T22:24:04.281Z,89.01
2022-12-29T22:26:30.970Z,88.92
2022-12-29T22:29:00.075Z,89.08
2022-12-29T22:31:30.548Z,89.26
2022-12-29T22:33:58.773Z,89.22
2022-12-29T22:36:26.615Z,88.79
2022-12-29T22:38:53.217Z,88.80
2022-12-29T22:41:23.064Z,89.08
2022-12-29T22:43:59.478Z,88.98
2022-12-29T22:46:30.978Z,89.05
2022-12-29T22:48:57.830Z,88.97
2022-12-29T22:51:24.479Z,88.74
2022-12-29T22:53:51.419Z,89.21
2022-12-29T22:56:18.232Z,89.09
2022-12-29T22:58:47.130Z,89.16
2022-12-29T23:01:16.102Z,89.06
2022-12-29T23:03:43.114Z,88.85
2022-12-29T23:06:14.895Z,89.09
2022-12-29T23:08:43.679Z,88.98
2022-12-29T23:11:12.649Z,89.11
2022-12-29T23:13:41.091Z,89.18
2022-12-29T23:16:08.197Z,89.13
2022-12-29T23:18:34.856Z,89.23
2022-12-29T23:21:01.491Z,88.99
2022-12-29T23:23:49.615Z,89.21
2022-12-29T23:26:18.653Z,89.10
2022-12-29T23:28:45.450Z,89.15
2022-12-29T23:31:12.094Z,89.17
2022-12-29T23:33:40.955Z,89.18
2022-12-29T23:36:08.164Z,89.31
2022-12-29T23:38:34.725Z,89.16
2022-12-29T23:41:01.253Z,89.33
2022-12-29T23:43:27.846Z,89.12
2022-12-29T23:45:54.471Z,89.49
2022-12-29T23:48:21.155Z,89.31
2022-12-29T23:50:47.808Z,89.54
2022-12-29T23:53:16.706Z,89.34
2022-12-29T23:55:43.957Z,89.70
2022-12-29T23:58:11.002Z,89.61
